Time;durP1;ratioP1;P1;durP2;ratioP2;P2;SDS_P1;SDS_P2;PMS_P1;PMS_P2;Temp;Humidity;BMP_temperature;BMP_pressure;BME280_temperature;BME280_humidity;BME280_pressure;Samples;Min_cycle;Max_cycle;Signal;HPM_P1;HPM_P2
2024/02/04 00:00:06;;;;;;;10.38;4.97;;;;;;;;;;2085439;28;20372;-46
2024/02/04 00:01:08;;;;;;;13.95;4.95;;;;;;;;;;2085491;28;20025;-46
2024/02/04 00:02:13;;;;;;;12.60;5.40;;;;;;;;;;2085752;28;20029;-45
2024/02/04 00:03:15;;;;;;;11.80;5.20;;;;;;;;;;2085838;28;20058;-46
2024/02/04 00:04:16;;;;;;;7.90;4.63;;;;;;;;;;2081397;28;20100;-46
2024/02/04 00:05:18;;;;;;;13.05;5.15;;;;;;;;;;2081685;28;20553;-45
2024/02/04 00:06:19;;;;;;;13.60;5.22;;;;;;;;;;2081555;28;20092;-46
2024/02/04 00:07:21;;;;;;;10.15;5.05;;;;;;;;;;2081394;28;20075;-46
2024/02/04 00:08:22;;;;;;;6.78;4.60;;;;;;;;;;2081319;28;20013;-46
2024/02/04 00:09:23;;;;;;;10.68;4.50;;;;;;;;;;2091565;28;20494;-46
2024/02/04 00:10:26;;;;;;;9.80;4.95;;;;;;;;;;2088928;28;20099;-46
2024/02/04 00:11:27;;;;;;;10.13;5.43;;;;;;;;;;2081669;28;20010;-46
2024/02/04 00:12:29;;;;;;;9.73;4.78;;;;;;;;;;2081377;28;20029;-46
2024/02/04 00:13:30;;;;;;;8.88;4.88;;;;;;;;;;2081151;28;20040;-46
2024/02/04 00:14:31;;;;;;;15.02;5.55;;;;;;;;;;2087888;28;20388;-46
2024/02/04 00:15:33;;;;;;;11.70;4.72;;;;;;;;;;2080818;28;20033;-46
2024/02/04 00:16:34;;;;;;;12.90;5.45;;;;;;;;;;2080365;28;20151;-46
2024/02/04 00:17:36;;;;;;;12.75;5.15;;;;;;;;;;2074749;28;20554;-46
2024/02/04 00:18:37;;;;;;;9.75;5.13;;;;;;;;;;2081513;28;20029;-45
2024/02/04 00:19:38;;;;;;;9.88;5.05;;;;;;;;;;2081120;28;20025;-46
2024/02/04 00:20:39;;;;;;;8.70;4.60;;;;;;;;;;2078483;28;20195;-46
2024/02/04 00:21:41;;;;;;;10.98;4.53;;;;;;;;;;2081624;28;20105;-46
2024/02/04 00:22:42;;;;;;;10.25;4.70;;;;;;;;;;2076535;28;20093;-46
2024/02/04 00:23:43;;;;;;;8.02;4.82;;;;;;;;;;2081172;28;20447;-46
2024/02/04 00:24:44;;;;;;;10.50;4.40;;;;;;;;;;2081027;28;20021;-46
2024/02/04 00:25:46;;;;;;;15.27;5.30;;;;;;;;;;2088464;28;20579;-48
2024/02/04 00:26:47;;;;;;;11.70;5.18;;;;;;;;;;2088856;28;20721;-46
2024/02/04 00:27:49;;;;;;;9.27;4.40;;;;;;;;;;2081145;28;20026;-46
2024/02/04 00:28:50;;;;;;;11.02;4.72;;;;;;;;;;2081163;28;20119;-46
2024/02/04 00:29:51;;;;;;;7.78;4.43;;;;;;;;;;2081190;28;20479;-46
2024/02/04 00:30:55;;;;;;;10.60;4.47;;;;;;;;;;2083861;28;20088;-46
2024/02/04 00:31:56;;;;;;;11.18;4.72;;;;;;;;;;2085125;28;20662;-46
2024/02/04 00:33:02;;;;;;;9.93;4.82;;;;;;;;;;2081129;28;20029;-47
2024/02/04 00:34:05;;;;;;;8.73;4.47;;;;;;;;;;2081099;28;20575;-46
2024/02/04 00:35:06;;;;;;;11.32;5.15;;;;;;;;;;2081178;28;20017;-46
2024/02/04 00:36:07;;;;;;;12.32;4.57;;;;;;;;;;2081264;28;20013;-46
2024/02/04 00:37:09;;;;;;;12.32;4.88;;;;;;;;;;2080821;28;20098;-46
2024/02/04 00:38:10;;;;;;;11.13;4.95;;;;;;;;;;2078943;28;20014;-46
2024/02/04 00:39:11;;;;;;;10.15;4.30;;;;;;;;;;2077234;28;20024;-46
2024/02/04 00:40:13;;;;;;;10.75;4.50;;;;;;;;;;2081072;28;20029;-46
2024/02/04 00:41:14;;;;;;;8.68;4.30;;;;;;;;;;2081212;28;20101;-46
2024/02/04 00:42:15;;;;;;;10.25;4.57;;;;;;;;;;2080357;28;20176;-46
2024/02/04 00:43:16;;;;;;;9.55;4.53;;;;;;;;;;2076492;28;20053;-47
2024/02/04 00:44:18;;;;;;;14.48;4.63;;;;;;;;;;2079225;28;20064;-46
2024/02/04 00:45:19;;;;;;;12.60;4.85;;;;;;;;;;2088660;28;20055;-47
2024/02/04 00:46:20;;;;;;;11.05;5.10;;;;;;;;;;2080445;28;20025;-47
2024/02/04 00:47:22;;;;;;;11.40;4.63;;;;;;;;;;2080288;28;20032;-47
2024/02/04 00:48:23;;;;;;;11.23;4.85;;;;;;;;;;2078784;28;20014;-47
2024/02/04 00:49:26;;;;;;;10.85;4.68;;;;;;;;;;2084739;28;20024;-46
2024/02/04 00:50:27;;;;;;;9.27;4.45;;;;;;;;;;2076659;28;20744;-47
2024/02/04 00:51:28;;;;;;;10.63;4.63;;;;;;;;;;2083215;28;20062;-47
2024/02/04 00:52:30;;;;;;;11.77;4.13;;;;;;;;;;2081002;28;20450;-47
2024/02/04 00:53:33;;;;;;;9.23;4.70;;;;;;;;;;2081068;28;20022;-46
2024/02/04 00:54:35;;;;;;;9.45;4.88;;;;;;;;;;2081060;28;20024;-46
2024/02/04 00:55:36;;;;;;;11.07;4.28;;;;;;;;;;2080922;28;20079;-48
2024/02/04 00:56:38;;;;;;;8.15;4.03;;;;;;;;;;2080663;28;20017;-47
2024/02/04 00:57:39;;;;;;;9.95;4.25;;;;;;;;;;2081097;28;20127;-46
2024/02/04 00:58:40;;;;;;;11.93;4.72;;;;;;;;;;2088625;28;20029;-46
2024/02/04 00:59:41;;;;;;;9.25;5.00;;;;;;;;;;2080411;28;20040;-46
2024/02/04 01:00:43;;;;;;;7.82;4.35;;;;;;;;;;2080786;28;20014;-46
2024/02/04 01:01:44;;;;;;;9.70;4.40;;;;;;;;;;2085961;28;20432;-46
2024/02/04 01:02:45;;;;;;;7.35;4.00;;;;;;;;;;2080953;28;20071;-46
2024/02/04 01:03:47;;;;;;;11.20;4.57;;;;;;;;;;2080889;28;20079;-46
2024/02/04 01:04:51;;;;;;;13.93;4.68;;;;;;;;;;2074551;28;20034;-46
2024/02/04 01:05:52;;;;;;;8.93;3.75;;;;;;;;;;2080864;28;20028;-46
2024/02/04 01:06:53;;;;;;;8.70;4.35;;;;;;;;;;2080755;28;20361;-47
2024/02/04 01:07:55;;;;;;;13.27;4.38;;;;;;;;;;2080847;28;20021;-47
2024/02/04 01:08:59;;;;;;;6.93;3.95;;;;;;;;;;2080973;28;20136;-46
2024/02/04 01:10:00;;;;;;;11.90;4.15;;;;;;;;;;2088440;28;20013;-46
2024/02/04 01:11:02;;;;;;;10.60;4.72;;;;;;;;;;2081172;28;20471;-46
2024/02/04 01:12:04;;;;;;;8.75;3.83;;;;;;;;;;2080354;28;20029;-47
2024/02/04 01:13:05;;;;;;;6.88;4.10;;;;;;;;;;2080946;28;20383;-51
2024/02/04 01:14:07;;;;;;;9.80;4.15;;;;;;;;;;2080752;28;20431;-52
2024/02/04 01:15:08;;;;;;;8.18;4.32;;;;;;;;;;2077945;28;20052;-52
2024/02/04 01:16:09;;;;;;;9.90;4.07;;;;;;;;;;2080798;28;20395;-47
2024/02/04 01:17:11;;;;;;;10.18;3.90;;;;;;;;;;2081284;28;20048;-51
2024/02/04 01:18:12;;;;;;;8.30;4.30;;;;;;;;;;2081069;28;20021;-51
2024/02/04 01:19:13;;;;;;;7.78;4.25;;;;;;;;;;2088473;28;20063;-51
2024/02/04 01:20:14;;;;;;;9.88;4.13;;;;;;;;;;2087864;28;20043;-51
2024/02/04 01:21:16;;;;;;;6.70;3.83;;;;;;;;;;2081503;28;20022;-52
2024/02/04 01:22:17;;;;;;;7.25;4.00;;;;;;;;;;2086474;28;20029;-46
2024/02/04 01:23:19;;;;;;;9.00;4.35;;;;;;;;;;2088482;28;20098;-52
2024/02/04 01:24:20;;;;;;;9.90;4.35;;;;;;;;;;2080969;28;20041;-49
2024/02/04 01:25:22;;;;;;;10.60;3.95;;;;;;;;;;2080969;28;20002;-51
2024/02/04 01:26:24;;;;;;;9.32;4.13;;;;;;;;;;2080651;28;20062;-51
2024/02/04 01:27:25;;;;;;;10.73;4.47;;;;;;;;;;2080791;28;20068;-50
2024/02/04 01:28:26;;;;;;;8.55;4.15;;;;;;;;;;2080855;28;20380;-53
2024/02/04 01:29:27;;;;;;;9.02;4.60;;;;;;;;;;2080782;28;20022;-53
2024/02/04 01:30:30;;;;;;;9.00;4.57;;;;;;;;;;2080494;28;20021;-51
2024/02/04 01:31:34;;;;;;;8.50;4.05;;;;;;;;;;2080806;28;21395;-54
2024/02/04 01:32:35;;;;;;;13.02;4.30;;;;;;;;;;2080914;28;20017;-52
2024/02/04 01:33:36;;;;;;;10.25;4.55;;;;;;;;;;2088416;28;20023;-52
2024/02/04 01:34:37;;;;;;;6.35;4.30;;;;;;;;;;2081531;28;20013;-53
2024/02/04 01:35:39;;;;;;;8.60;4.32;;;;;;;;;;2085425;28;20034;-52
2024/02/04 01:36:40;;;;;;;9.23;4.90;;;;;;;;;;2087189;28;20033;-51
2024/02/04 01:37:43;;;;;;;9.98;4.15;;;;;;;;;;2082513;28;20087;-50
2024/02/04 01:38:44;;;;;;;9.27;4.68;;;;;;;;;;2080884;28;20380;-53
2024/02/04 01:39:45;;;;;;;7.03;4.30;;;;;;;;;;2080591;28;20052;-53
2024/02/04 01:40:47;;;;;;;9.35;4.72;;;;;;;;;;2081377;28;20029;-55
2024/02/04 01:41:48;;;;;;;10.27;4.90;;;;;;;;;;2080645;28;20033;-52
2024/02/04 01:42:49;;;;;;;10.18;4.50;;;;;;;;;;2080632;28;20029;-53
2024/02/04 01:43:51;;;;;;;10.65;4.28;;;;;;;;;;2080710;28;20407;-51
2024/02/04 01:44:52;;;;;;;9.40;4.35;;;;;;;;;;2088358;28;20082;-51
2024/02/04 01:45:53;;;;;;;10.73;4.60;;;;;;;;;;2088094;28;20025;-52
2024/02/04 01:46:55;;;;;;;9.48;4.40;;;;;;;;;;2078547;28;20468;-52
2024/02/04 01:47:56;;;;;;;7.43;4.55;;;;;;;;;;2079579;28;20108;-52
2024/02/04 01:48:57;;;;;;;8.32;4.18;;;;;;;;;;2081787;28;20399;-48
2024/02/04 01:49:59;;;;;;;9.43;5.03;;;;;;;;;;2079054;28;20026;-51
2024/02/04 01:51:01;;;;;;;7.95;4.30;;;;;;;;;;2080468;28;20077;-53
2024/02/04 01:52:03;;;;;;;9.55;4.20;;;;;;;;;;2080077;28;20450;-52
2024/02/04 01:53:04;;;;;;;11.23;4.70;;;;;;;;;;2083489;28;20076;-51
2024/02/04 01:54:06;;;;;;;8.55;4.57;;;;;;;;;;2087289;28;20029;-52
2024/02/04 01:55:08;;;;;;;10.25;5.20;;;;;;;;;;2080440;28;20095;-50
2024/02/04 01:56:09;;;;;;;9.10;5.15;;;;;;;;;;2088612;28;20067;-49
2024/02/04 01:57:11;;;;;;;10.05;4.45;;;;;;;;;;2088837;28;20079;-50
2024/02/04 01:58:12;;;;;;;7.38;4.20;;;;;;;;;;2081707;28;20025;-44
2024/02/04 01:59:13;;;;;;;9.43;4.28;;;;;;;;;;2080635;28;20079;-53
2024/02/04 02:00:15;;;;;;;10.00;4.80;;;;;;;;;;2080724;28;20022;-51
2024/02/04 02:01:17;;;;;;;9.65;5.13;;;;;;;;;;2080426;28;20018;-52
2024/02/04 02:02:18;;;;;;;9.00;4.70;;;;;;;;;;2080647;28;20467;-50
2024/02/04 02:03:20;;;;;;;8.88;4.50;;;;;;;;;;2072707;28;20022;-53
2024/02/04 02:04:22;;;;;;;8.90;4.43;;;;;;;;;;2077523;28;20036;-52
2024/02/04 02:05:23;;;;;;;7.88;4.38;;;;;;;;;;2082173;28;20450;-50
2024/02/04 02:06:25;;;;;;;8.88;5.10;;;;;;;;;;2081385;28;20101;-51
2024/02/04 02:07:27;;;;;;;10.52;4.70;;;;;;;;;;2082569;28;20095;-52
2024/02/04 02:08:28;;;;;;;6.43;4.10;;;;;;;;;;2082106;28;20064;-51
2024/02/04 02:09:29;;;;;;;15.48;5.75;;;;;;;;;;2082560;28;20022;-51
2024/02/04 02:10:31;;;;;;;11.18;4.88;;;;;;;;;;2082401;28;20013;-52
2024/02/04 02:11:39;;;;;;;10.68;4.97;;;;;;;;;;2082003;28;20008;-52
2024/02/04 02:12:44;;;;;;;9.98;4.65;;;;;;;;;;2082195;28;20494;-52
2024/02/04 02:13:49;;;;;;;11.13;4.47;;;;;;;;;;2082358;28;20083;-52
2024/02/04 02:15:22;;;;;;;10.65;5.03;;;;;;;;;;2082149;28;20033;-52
2024/02/04 02:16:25;;;;;;;9.98;4.95;;;;;;;;;;2064753;28;20679;-48
2024/02/04 02:17:31;;;;;;;7.90;4.50;;;;;;;;;;2080758;28;20519;-52
2024/02/04 02:18:38;;;;;;;8.90;4.82;;;;;;;;;;2081899;28;20029;-51
2024/02/04 02:19:52;;;;;;;7.80;4.40;;;;;;;;;;2082186;28;20021;-52
2024/02/04 02:21:03;;;;;;;11.77;4.28;;;;;;;;;;2082020;28;20622;-51
2024/02/04 02:22:25;;;;;;;9.73;4.57;;;;;;;;;;2090007;28;20040;-47
2024/02/04 02:23:41;;;;;;;9.40;4.70;;;;;;;;;;2085043;28;20026;-52
2024/02/04 02:24:42;;;;;;;9.82;5.07;;;;;;;;;;2082297;28;20013;-51
2024/02/04 02:25:44;;;;;;;8.18;4.40;;;;;;;;;;2082188;28;20028;-52
2024/02/04 02:26:46;;;;;;;8.63;4.28;;;;;;;;;;2082024;28;20018;-52
2024/02/04 02:27:50;;;;;;;13.88;4.97;;;;;;;;;;2082163;28;20377;-52
2024/02/04 02:28:51;;;;;;;8.80;4.15;;;;;;;;;;2081870;28;20495;-52
2024/02/04 02:29:53;;;;;;;10.88;4.47;;;;;;;;;;2082064;28;20018;-52
2024/02/04 02:30:54;;;;;;;11.70;4.93;;;;;;;;;;2082125;28;20029;-52
2024/02/04 02:31:55;;;;;;;8.15;4.47;;;;;;;;;;2082085;28;20029;-51
2024/02/04 02:32:57;;;;;;;10.43;4.78;;;;;;;;;;2082047;28;20013;-51
2024/02/04 02:33:59;;;;;;;11.40;4.38;;;;;;;;;;2089846;28;20069;-52
2024/02/04 02:35:00;;;;;;;9.27;4.50;;;;;;;;;;2081426;28;20467;-52
2024/02/04 02:36:03;;;;;;;10.35;4.95;;;;;;;;;;2081419;28;20026;-50
2024/02/04 02:37:08;;;;;;;11.98;4.82;;;;;;;;;;2082253;28;20097;-51
2024/02/04 02:38:38;;;;;;;9.10;4.40;;;;;;;;;;2084162;28;20387;-52
2024/02/04 02:39:58;;;;;;;10.40;3.90;;;;;;;;;;2081198;28;20029;-52
2024/02/04 02:41:00;;;;;;;8.43;4.50;;;;;;;;;;2081509;28;20030;-45
2024/02/04 02:42:02;;;;;;;8.77;4.22;;;;;;;;;;2082060;28;20055;-52
2024/02/04 02:43:04;;;;;;;9.00;4.03;;;;;;;;;;2081734;28;20376;-45
2024/02/04 02:44:06;;;;;;;7.63;4.25;;;;;;;;;;2079481;28;20044;-45
2024/02/04 02:45:08;;;;;;;10.93;4.63;;;;;;;;;;2073796;28;20064;-46
2024/02/04 02:46:09;;;;;;;7.25;4.35;;;;;;;;;;2079720;28;20032;-44
2024/02/04 02:47:11;;;;;;;10.52;4.20;;;;;;;;;;2089760;28;20028;-44
2024/02/04 02:48:13;;;;;;;14.50;4.65;;;;;;;;;;2076041;28;20121;-44
2024/02/04 02:49:14;;;;;;;9.13;4.30;;;;;;;;;;2084405;28;20450;-44
2024/02/04 02:50:16;;;;;;;12.35;4.75;;;;;;;;;;2073816;28;20496;-44
2024/02/04 02:51:17;;;;;;;10.95;4.30;;;;;;;;;;2080003;28;20022;-44
2024/02/04 02:52:18;;;;;;;7.70;4.38;;;;;;;;;;2081790;28;20018;-44
2024/02/04 02:53:20;;;;;;;14.60;4.75;;;;;;;;;;2082025;28;20029;-44
2024/02/04 02:54:21;;;;;;;9.25;4.35;;;;;;;;;;2082019;28;20549;-44
2024/02/04 02:55:22;;;;;;;8.18;3.80;;;;;;;;;;2081808;28;20044;-46
2024/02/04 02:56:24;;;;;;;9.77;4.20;;;;;;;;;;2082909;28;20037;-45
2024/02/04 02:57:25;;;;;;;8.90;4.10;;;;;;;;;;2080789;28;20025;-45
2024/02/04 02:58:26;;;;;;;7.57;4.18;;;;;;;;;;2082178;28;20033;-54
2024/02/04 02:59:27;;;;;;;7.40;4.05;;;;;;;;;;2078065;28;20022;-53
2024/02/04 03:00:29;;;;;;;6.55;3.55;;;;;;;;;;2073641;28;20470;-50
2024/02/04 03:01:31;;;;;;;8.95;3.55;;;;;;;;;;2081261;28;20136;-49
2024/02/04 03:02:33;;;;;;;15.32;4.65;;;;;;;;;;2081676;28;20025;-50
2024/02/04 03:03:34;;;;;;;7.18;4.10;;;;;;;;;;2081873;28;20036;-50
2024/02/04 03:04:35;;;;;;;8.30;4.40;;;;;;;;;;2081752;28;20075;-44
2024/02/04 03:05:37;;;;;;;11.02;3.80;;;;;;;;;;2081381;28;20506;-43
2024/02/04 03:06:39;;;;;;;7.07;3.83;;;;;;;;;;2081812;28;20563;-45
2024/02/04 03:07:40;;;;;;;7.75;4.25;;;;;;;;;;2080224;28;20017;-43
2024/02/04 03:08:41;;;;;;;8.80;3.97;;;;;;;;;;2082413;28;20436;-44
2024/02/04 03:09:44;;;;;;;7.63;4.03;;;;;;;;;;2090055;28;20025;-44
2024/02/04 03:10:45;;;;;;;12.63;4.05;;;;;;;;;;2082350;28;20014;-45
2024/02/04 03:11:46;;;;;;;10.05;4.30;;;;;;;;;;2080916;28;20455;-45
2024/02/04 03:12:47;;;;;;;8.57;4.13;;;;;;;;;;2073784;28;20663;-43
2024/02/04 03:13:49;;;;;;;8.85;3.85;;;;;;;;;;2079350;28;20013;-43
2024/02/04 03:14:50;;;;;;;7.00;4.03;;;;;;;;;;2081350;28;20033;-44
2024/02/04 03:15:51;;;;;;;8.18;3.85;;;;;;;;;;2089337;28;20029;-44
2024/02/04 03:16:52;;;;;;;7.38;3.72;;;;;;;;;;2089088;28;20391;-44
2024/02/04 03:17:54;;;;;;;8.40;4.18;;;;;;;;;;2081827;28;20056;-44
2024/02/04 03:18:55;;;;;;;7.30;3.47;;;;;;;;;;2081726;28;20013;-43
2024/02/04 03:19:56;;;;;;;10.10;4.15;;;;;;;;;;2081689;28;20017;-45
2024/02/04 03:20:58;;;;;;;7.10;3.88;;;;;;;;;;2079542;28;20025;-44
2024/02/04 03:21:59;;;;;;;9.68;4.68;;;;;;;;;;2074417;28;20410;-43
2024/02/04 03:23:00;;;;;;;8.80;3.47;;;;;;;;;;2079413;28;20030;-44
2024/02/04 03:24:01;;;;;;;7.68;3.33;;;;;;;;;;2089558;28;20025;-44
2024/02/04 03:25:03;;;;;;;9.55;3.58;;;;;;;;;;2081879;28;20044;-44
2024/02/04 03:26:04;;;;;;;8.32;3.88;;;;;;;;;;2081531;28;20502;-44
2024/02/04 03:27:05;;;;;;;8.55;3.65;;;;;;;;;;2081774;28;20063;-44
2024/02/04 03:28:07;;;;;;;7.45;3.50;;;;;;;;;;2084561;28;20017;-44
2024/02/04 03:29:08;;;;;;;9.63;3.80;;;;;;;;;;2081674;28;20135;-44
2024/02/04 03:30:09;;;;;;;8.95;4.28;;;;;;;;;;2081662;28;20495;-45
2024/02/04 03:31:11;;;;;;;6.47;3.47;;;;;;;;;;2079384;28;20049;-45
2024/02/04 03:32:12;;;;;;;7.07;4.05;;;;;;;;;;2085388;28;20013;-44
2024/02/04 03:33:14;;;;;;;6.72;4.00;;;;;;;;;;2081717;28;20006;-44
2024/02/04 03:34:15;;;;;;;8.75;3.13;;;;;;;;;;2089154;28;20029;-44
2024/02/04 03:35:16;;;;;;;10.23;3.83;;;;;;;;;;2089292;28;20088;-44
2024/02/04 03:36:23;;;;;;;8.50;4.05;;;;;;;;;;2081494;28;20071;-44
2024/02/04 03:37:25;;;;;;;10.23;4.15;;;;;;;;;;2082235;28;20376;-45
2024/02/04 03:38:26;;;;;;;10.35;4.38;;;;;;;;;;2081712;28;20492;-44
2024/02/04 03:39:27;;;;;;;8.30;3.33;;;;;;;;;;2081301;28;20028;-44
2024/02/04 03:40:29;;;;;;;8.25;3.80;;;;;;;;;;2083812;28;20104;-44
2024/02/04 03:41:30;;;;;;;7.10;3.03;;;;;;;;;;2082465;28;20040;-44
2024/02/04 03:42:31;;;;;;;8.20;3.58;;;;;;;;;;2081273;28;20777;-46
2024/02/04 03:43:32;;;;;;;10.48;3.78;;;;;;;;;;2081580;28;20041;-51
2024/02/04 03:44:34;;;;;;;6.57;3.42;;;;;;;;;;2078008;28;20002;-51
2024/02/04 03:45:38;;;;;;;9.45;3.88;;;;;;;;;;2077442;28;20030;-51
2024/02/04 03:46:40;;;;;;;8.85;3.80;;;;;;;;;;2081504;28;20412;-51
2024/02/04 03:47:41;;;;;;;8.15;3.75;;;;;;;;;;2081458;28;20523;-53
2024/02/04 03:48:43;;;;;;;9.38;3.50;;;;;;;;;;2081624;28;20022;-50
2024/02/04 03:49:44;;;;;;;10.63;3.83;;;;;;;;;;2081839;28;20022;-45
2024/02/04 03:50:45;;;;;;;8.52;3.50;;;;;;;;;;2086006;28;20020;-46
2024/02/04 03:51:47;;;;;;;9.23;4.03;;;;;;;;;;2087522;28;20028;-45
2024/02/04 03:52:48;;;;;;;6.78;3.60;;;;;;;;;;2081724;28;20024;-46
2024/02/04 03:53:52;;;;;;;7.03;3.55;;;;;;;;;;2081355;28;20033;-46
2024/02/04 03:54:53;;;;;;;8.00;3.20;;;;;;;;;;2083392;28;20060;-46
2024/02/04 03:55:54;;;;;;;7.60;3.15;;;;;;;;;;2089084;28;20029;-45
2024/02/04 03:56:55;;;;;;;7.07;3.40;;;;;;;;;;2088858;28;20087;-45
2024/02/04 03:57:57;;;;;;;8.48;2.95;;;;;;;;;;2080623;28;20029;-45
2024/02/04 03:58:58;;;;;;;6.95;3.72;;;;;;;;;;2081316;28;20033;-46
2024/02/04 03:59:59;;;;;;;7.38;3.30;;;;;;;;;;2081491;28;20030;-45
2024/02/04 04:01:00;;;;;;;7.50;3.20;;;;;;;;;;2080671;28;20095;-46
2024/02/04 04:02:02;;;;;;;6.35;3.78;;;;;;;;;;2080525;28;20033;-45
2024/02/04 04:03:03;;;;;;;9.27;3.78;;;;;;;;;;2075226;28;20029;-45
2024/02/04 04:04:05;;;;;;;6.47;3.40;;;;;;;;;;2085607;28;20022;-45
2024/02/04 04:05:06;;;;;;;7.30;3.45;;;;;;;;;;2081466;28;20026;-46
2024/02/04 04:06:08;;;;;;;9.30;3.30;;;;;;;;;;2081153;28;20021;-46
2024/02/04 04:07:10;;;;;;;6.00;3.45;;;;;;;;;;2082816;28;20026;-47
2024/02/04 04:08:11;;;;;;;9.18;4.10;;;;;;;;;;2085499;28;20017;-46
2024/02/04 04:09:14;;;;;;;7.43;3.53;;;;;;;;;;2082717;28;20460;-46
2024/02/04 04:10:16;;;;;;;8.57;3.92;;;;;;;;;;2081185;28;20101;-46
2024/02/04 04:11:17;;;;;;;10.23;3.85;;;;;;;;;;2081462;28;20029;-46
2024/02/04 04:12:18;;;;;;;8.20;4.00;;;;;;;;;;2081404;28;20024;-46
2024/02/04 04:13:20;;;;;;;6.70;3.40;;;;;;;;;;2086916;28;20116;-45
2024/02/04 04:14:21;;;;;;;8.60;3.70;;;;;;;;;;2081249;28;20013;-45
2024/02/04 04:15:22;;;;;;;6.38;3.35;;;;;;;;;;2081158;28;20026;-46
2024/02/04 04:16:24;;;;;;;11.05;4.07;;;;;;;;;;2081713;28;20110;-46
2024/02/04 04:17:25;;;;;;;11.15;4.10;;;;;;;;;;2080432;28;20445;-45
2024/02/04 04:18:26;;;;;;;7.80;3.70;;;;;;;;;;2080505;28;20034;-46
2024/02/04 04:19:27;;;;;;;11.27;3.67;;;;;;;;;;2073275;28;20029;-46
2024/02/04 04:20:29;;;;;;;7.32;3.25;;;;;;;;;;2078663;28;20049;-46
2024/02/04 04:21:30;;;;;;;6.22;3.70;;;;;;;;;;2081166;28;20010;-46
2024/02/04 04:22:31;;;;;;;8.95;3.30;;;;;;;;;;2081221;28;20029;-46
2024/02/04 04:23:32;;;;;;;9.10;3.40;;;;;;;;;;2081089;28;20392;-46
2024/02/04 04:24:34;;;;;;;7.40;3.35;;;;;;;;;;2081236;28;20084;-46
2024/02/04 04:25:35;;;;;;;6.70;3.33;;;;;;;;;;2088741;28;20457;-46
2024/02/04 04:26:36;;;;;;;6.43;3.33;;;;;;;;;;2087922;28;20071;-46
2024/02/04 04:27:37;;;;;;;6.65;3.80;;;;;;;;;;2081100;28;20017;-46
2024/02/04 04:28:39;;;;;;;6.60;3.58;;;;;;;;;;2080468;28;20013;-46
2024/02/04 04:29:40;;;;;;;7.63;4.10;;;;;;;;;;2080552;28;20032;-46
2024/02/04 04:30:41;;;;;;;8.15;3.55;;;;;;;;;;2086468;28;20074;-46
2024/02/04 04:31:42;;;;;;;9.30;3.97;;;;;;;;;;2084209;28;20036;-45
2024/02/04 04:32:44;;;;;;;8.40;3.60;;;;;;;;;;2081322;28;20367;-47
2024/02/04 04:33:45;;;;;;;8.20;3.70;;;;;;;;;;2088296;28;20017;-45
2024/02/04 04:34:47;;;;;;;9.75;4.05;;;;;;;;;;2088394;28;20021;-46
2024/02/04 04:35:48;;;;;;;11.27;4.07;;;;;;;;;;2081301;28;20044;-45
2024/02/04 04:36:49;;;;;;;8.27;3.58;;;;;;;;;;2081075;28;20041;-45
2024/02/04 04:37:51;;;;;;;9.15;4.05;;;;;;;;;;2088610;28;20032;-46
2024/02/04 04:38:52;;;;;;;8.00;3.00;;;;;;;;;;2088838;28;20096;-46
2024/02/04 04:39:53;;;;;;;8.55;3.97;;;;;;;;;;2080864;28;20104;-46
2024/02/04 04:40:54;;;;;;;6.18;3.65;;;;;;;;;;2081150;28;20026;-46
2024/02/04 04:41:55;;;;;;;6.47;3.30;;;;;;;;;;2080994;28;20049;-46
2024/02/04 04:42:57;;;;;;;8.82;3.55;;;;;;;;;;2080766;28;20037;-45
2024/02/04 04:43:58;;;;;;;5.72;3.65;;;;;;;;;;2081231;28;20044;-45
2024/02/04 04:44:59;;;;;;;8.75;3.97;;;;;;;;;;2085427;28;20457;-45
2024/02/04 04:46:01;;;;;;;7.20;3.70;;;;;;;;;;2086375;28;20029;-46
2024/02/04 04:47:03;;;;;;;7.22;3.25;;;;;;;;;;2088756;28;20090;-46
2024/02/04 04:48:04;;;;;;;6.93;4.05;;;;;;;;;;2088445;28;20032;-46
2024/02/04 04:49:06;;;;;;;6.65;3.47;;;;;;;;;;2080929;28;20342;-46
2024/02/04 04:50:07;;;;;;;10.63;3.80;;;;;;;;;;2081029;28;20020;-46
2024/02/04 04:51:09;;;;;;;5.97;2.97;;;;;;;;;;2080821;28;20048;-46
2024/02/04 04:52:10;;;;;;;7.28;3.65;;;;;;;;;;2080970;28;20040;-46
2024/02/04 04:53:11;;;;;;;8.70;4.13;;;;;;;;;;2080922;28;20017;-46
2024/02/04 04:54:12;;;;;;;9.30;4.35;;;;;;;;;;2080765;28;20781;-46
2024/02/04 04:55:14;;;;;;;9.07;4.03;;;;;;;;;;2081062;28;20091;-46
2024/02/04 04:56:15;;;;;;;8.82;3.92;;;;;;;;;;2080842;28;20013;-46
2024/02/04 04:57:16;;;;;;;7.35;3.30;;;;;;;;;;2079438;28;20045;-46
2024/02/04 04:58:18;;;;;;;8.50;4.00;;;;;;;;;;2081095;28;20013;-46
2024/02/04 04:59:19;;;;;;;7.00;3.80;;;;;;;;;;2084488;28;20075;-47
2024/02/04 05:00:20;;;;;;;7.38;3.70;;;;;;;;;;2089317;28;20529;-46
2024/02/04 05:01:21;;;;;;;6.25;3.42;;;;;;;;;;2081218;28;20021;-46
2024/02/04 05:02:23;;;;;;;8.02;3.75;;;;;;;;;;2080736;28;20116;-46
2024/02/04 05:03:24;;;;;;;5.55;3.47;;;;;;;;;;2081088;28;20053;-47
2024/02/04 05:04:25;;;;;;;6.38;3.58;;;;;;;;;;2081048;28;20033;-46
2024/02/04 05:05:27;;;;;;;7.40;3.83;;;;;;;;;;2080729;28;20481;-46
2024/02/04 05:06:28;;;;;;;6.30;3.70;;;;;;;;;;2081196;28;20048;-47
2024/02/04 05:07:29;;;;;;;5.78;3.45;;;;;;;;;;2078815;28;20468;-46
2024/02/04 05:08:30;;;;;;;9.48;3.85;;;;;;;;;;2080959;28;20049;-46
2024/02/04 05:09:32;;;;;;;6.55;3.67;;;;;;;;;;2072956;28;20028;-46
2024/02/04 05:10:35;;;;;;;9.68;3.75;;;;;;;;;;2077271;28;20333;-46
2024/02/04 05:11:36;;;;;;;7.60;3.38;;;;;;;;;;2081148;28;20088;-46
2024/02/04 05:12:37;;;;;;;7.13;3.90;;;;;;;;;;2080715;28;20616;-46
2024/02/04 05:13:41;;;;;;;7.15;3.80;;;;;;;;;;2088531;28;20376;-47
2024/02/04 05:14:42;;;;;;;12.13;4.07;;;;;;;;;;2088233;28;20025;-47
2024/02/04 05:15:44;;;;;;;10.10;3.90;;;;;;;;;;2080769;28;20487;-46
2024/02/04 05:16:45;;;;;;;5.72;3.75;;;;;;;;;;2080897;28;20043;-46
2024/02/04 05:17:47;;;;;;;5.57;3.60;;;;;;;;;;2080975;28;20030;-47
2024/02/04 05:18:48;;;;;;;6.25;3.30;;;;;;;;;;2080795;28;20021;-46
2024/02/04 05:19:49;;;;;;;6.25;3.40;;;;;;;;;;2080765;28;20487;-47
2024/02/04 05:20:50;;;;;;;11.05;3.88;;;;;;;;;;2080838;28;20521;-52
2024/02/04 05:21:52;;;;;;;5.65;3.45;;;;;;;;;;2080075;28;20025;-51
2024/02/04 05:22:54;;;;;;;7.15;3.45;;;;;;;;;;2080785;28;20029;-52
2024/02/04 05:23:55;;;;;;;6.78;3.30;;;;;;;;;;2080855;28;20028;-52
2024/02/04 05:24:57;;;;;;;6.70;3.17;;;;;;;;;;2080832;28;20440;-52
2024/02/04 05:25:58;;;;;;;5.93;3.20;;;;;;;;;;2085942;28;20548;-53
2024/02/04 05:26:59;;;;;;;7.30;4.03;;;;;;;;;;2082280;28;20033;-53
2024/02/04 05:28:00;;;;;;;7.10;3.00;;;;;;;;;;2081698;28;20112;-50
2024/02/04 05:29:02;;;;;;;6.38;3.33;;;;;;;;;;2072096;28;20460;-51
2024/02/04 05:30:04;;;;;;;6.43;3.40;;;;;;;;;;2075373;28;20043;-53
2024/02/04 05:31:05;;;;;;;5.85;3.10;;;;;;;;;;2082349;28;20026;-53
2024/02/04 05:32:07;;;;;;;6.85;3.58;;;;;;;;;;2080706;28;20391;-53
2024/02/04 05:33:08;;;;;;;9.07;3.72;;;;;;;;;;2080699;28;20021;-53
2024/02/04 05:34:10;;;;;;;6.47;3.25;;;;;;;;;;2080254;28;20104;-53
2024/02/04 05:35:11;;;;;;;6.80;3.05;;;;;;;;;;2078477;28;20028;-52
2024/02/04 05:36:13;;;;;;;7.95;3.55;;;;;;;;;;2080632;28;20018;-52
2024/02/04 05:37:14;;;;;;;6.85;3.30;;;;;;;;;;2080725;28;20078;-53
2024/02/04 05:38:16;;;;;;;6.60;3.17;;;;;;;;;;2080412;28;20029;-53
2024/02/04 05:39:18;;;;;;;7.28;3.80;;;;;;;;;;2081052;28;20017;-53
2024/02/04 05:40:20;;;;;;;8.32;3.30;;;;;;;;;;2081554;28;20099;-53
2024/02/04 05:41:21;;;;;;;9.05;3.13;;;;;;;;;;2081204;28;20068;-51
2024/02/04 05:42:23;;;;;;;7.85;3.33;;;;;;;;;;2081220;28;20567;-49
2024/02/04 05:43:24;;;;;;;5.22;3.30;;;;;;;;;;2082001;28;20029;-52
2024/02/04 05:44:25;;;;;;;9.20;3.78;;;;;;;;;;2080784;28;20114;-52
2024/02/04 05:45:27;;;;;;;7.60;3.47;;;;;;;;;;2080738;28;20480;-51
2024/02/04 05:46:28;;;;;;;4.25;3.03;;;;;;;;;;2080677;28;20075;-52
2024/02/04 05:47:30;;;;;;;7.75;3.03;;;;;;;;;;2080748;28;20021;-47
2024/02/04 05:48:31;;;;;;;7.65;3.00;;;;;;;;;;2072687;28;20014;-52
2024/02/04 05:49:32;;;;;;;7.72;3.33;;;;;;;;;;2079641;28;20029;-47
2024/02/04 05:50:33;;;;;;;7.93;3.50;;;;;;;;;;2080654;28;20080;-47
2024/02/04 05:51:41;;;;;;;7.38;3.80;;;;;;;;;;2077608;28;20014;-46
2024/02/04 05:52:42;;;;;;;7.75;3.47;;;;;;;;;;2075197;28;20029;-47
2024/02/04 05:53:44;;;;;;;7.05;3.67;;;;;;;;;;2088010;28;20013;-46
2024/02/04 05:54:45;;;;;;;7.18;3.50;;;;;;;;;;2082509;28;20078;-47
2024/02/04 05:55:47;;;;;;;9.48;3.58;;;;;;;;;;2080650;28;20406;-47
2024/02/04 05:56:48;;;;;;;6.80;3.35;;;;;;;;;;2080657;28;20525;-52
2024/02/04 05:57:49;;;;;;;6.60;3.35;;;;;;;;;;2079865;28;20045;-53
2024/02/04 05:58:51;;;;;;;9.02;3.42;;;;;;;;;;2075565;28;20080;-47
2024/02/04 05:59:52;;;;;;;8.63;3.60;;;;;;;;;;2072903;28;20058;-51
2024/02/04 06:00:54;;;;;;;6.28;3.40;;;;;;;;;;2081728;28;20032;-52
2024/02/04 06:01:55;;;;;;;5.13;3.30;;;;;;;;;;2081126;28;20033;-52
2024/02/04 06:02:56;;;;;;;6.07;3.20;;;;;;;;;;2080217;28;20037;-53
2024/02/04 06:03:57;;;;;;;7.07;3.20;;;;;;;;;;2081366;28;20049;-47
2024/02/04 06:04:59;;;;;;;6.90;3.38;;;;;;;;;;2079976;28;20026;-47
2024/02/04 06:06:00;;;;;;;6.15;3.60;;;;;;;;;;2079881;28;20009;-47
2024/02/04 06:07:01;;;;;;;8.18;3.83;;;;;;;;;;2080413;28;20091;-47
2024/02/04 06:08:02;;;;;;;6.03;3.47;;;;;;;;;;2080620;28;20022;-47
2024/02/04 06:09:04;;;;;;;5.68;2.95;;;;;;;;;;2080613;28;20502;-47
2024/02/04 06:10:05;;;;;;;7.53;3.55;;;;;;;;;;2080539;28;20407;-47